Winchester, Wisconsin
Current Conditions -  °F | °C
As of 10:45 AM on Friday 24 Oct 2014 (Local Time) from KATW Reporting Station
Moderate Fog Moderate Fog  
Wind Chill: 46°   Ceiling: 200
Heat Index: 48°   Visibility: 0.5mi
Dew Point: 46°   Wind: 6mph
Humidity: 93%   Direction: 200°SSW
Pressure: 30.02"   Gusts: NA
Location:  44.2002°N, 88.6941°W
Report Text: KATW 241545Z 20005KT 1/2SM FG VV002 09/08 A3002
Loading
Personal Weather Stations






























Interactive Weather Map
Tropical Storm Tracking
New forecast layout! Learn more

10-Day Weather Forecast

Advertisements
Track Severe Weather on mobile